Time,TemperatureF,DewpointF,PressureIn,WindDirection,WindDirectionDegrees,WindSpeedMPH,WindSpeedGustMPH,Humidity,HourlyPrecipIn,Conditions,Clouds,dailyrainin,SoftwareType,DateUTC
2013-05-04 00:01:00,61.0,49.6,30.18,NW,322,1.0,1.0,66,0.00,,OVC040,0.00,VWS V14.01,2013-05-04 04:01:00,
2013-05-04 00:02:00,61.0,49.6,30.18,SE,142,0.0,0.0,66,0.00,,OVC040,0.00,VWS V14.01,2013-05-04 04:02:00,
2013-05-04 00:03:00,61.0,49.6,30.18,SE,130,0.0,0.0,66,0.00,,OVC040,0.00,VWS V14.01,2013-05-04 04:03:00,
2013-05-04 00:08:00,60.9,49.9,30.18,East,94,0.0,0.0,67,0.00,,OVC040,0.00,VWS V14.01,2013-05-04 04:08:00,
2013-05-04 00:13:00,60.9,50.3,30.18,NW,304,0.0,3.0,68,0.00,,OVC040,0.00,VWS V14.01,2013-05-04 04:13:00,
2013-05-04 00:18:00,60.7,50.1,30.18,West,278,0.0,2.0,68,0.00,,OVC040,0.00,VWS V14.01,2013-05-04 04:18:00,
2013-05-04 00:23:00,60.7,50.5,30.18,NNE,30,0.0,0.0,69,0.00,,OVC040,0.00,VWS V14.01,2013-05-04 04:23:00,
2013-05-04 00:28:00,60.5,50.3,30.18,North,354,0.0,1.0,69,0.00,,OVC040,0.00,VWS V14.01,2013-05-04 04:28:00,
2013-05-04 00:33:00,60.5,50.3,30.18,NE,51,0.0,2.0,69,0.00,,OVC040,0.00,VWS V14.01,2013-05-04 04:33:00,
2013-05-04 00:38:00,60.5,50.7,30.18,South,169,0.0,1.0,70,0.00,,OVC040,0.00,VWS V14.01,2013-05-04 04:38:00,
2013-05-04 00:43:00,60.4,50.6,30.18,NW,322,5.0,6.0,70,0.00,,OVC040,0.00,VWS V14.01,2013-05-04 04:43:00,
2013-05-04 00:48:00,60.2,50.8,30.17,NW,306,0.0,3.0,71,0.00,,OVC040,0.00,VWS V14.01,2013-05-04 04:48:00,
2013-05-04 00:53:00,60.1,50.7,30.17,NW,326,0.0,1.0,71,0.00,,OVC040,0.00,VWS V14.01,2013-05-04 04:53:00,
2013-05-04 00:58:00,60.1,51.1,30.17,NNE,13,0.0,2.0,72,0.00,,OVC040,0.00,VWS V14.01,2013-05-04 04:58:00,
2013-05-04 01:03:00,59.9,50.9,30.17,NE,53,0.0,0.0,72,0.00,,OVC048,0.00,VWS V14.01,2013-05-04 05:03:00,
2013-05-04 01:08:00,59.6,50.6,30.17,WNW,299,0.0,0.0,72,0.00,,OVC048,0.00,VWS V14.01,2013-05-04 05:08:00,
2013-05-04 01:13:00,59.5,50.8,30.17,NW,316,0.0,0.0,73,0.00,,OVC048,0.00,VWS V14.01,2013-05-04 05:13:00,
2013-05-04 01:19:00,59.5,50.8,30.17,NNW,334,0.0,1.0,73,0.00,,OVC048,0.00,VWS V14.01,2013-05-04 05:19:00,
2013-05-04 01:24:00,59.3,51.0,30.17,WNW,297,4.0,4.0,74,0.00,,OVC048,0.00,VWS V14.01,2013-05-04 05:24:00,
2013-05-04 01:29:00,59.2,51.3,30.17,NNW,340,0.0,0.0,75,0.00,,OVC048,0.00,VWS V14.01,2013-05-04 05:29:00,
2013-05-04 01:34:00,59.2,51.7,30.17,ENE,73,0.0,0.0,76,0.00,,OVC048,0.00,VWS V14.01,2013-05-04 05:34:00,
2013-05-04 01:39:00,59.0,51.5,30.17,South,190,0.0,3.0,76,0.00,,OVC048,0.00,VWS V14.01,2013-05-04 05:39:00,
2013-05-04 01:44:00,58.9,51.7,30.17,ENE,75,0.0,0.0,77,0.00,,OVC048,0.00,VWS V14.01,2013-05-04 05:44:00,
2013-05-04 01:49:00,58.9,51.7,30.16,ENE,58,0.0,0.0,77,0.00,,OVC048,0.00,VWS V14.01,2013-05-04 05:49:00,
2013-05-04 01:54:00,58.9,52.1,30.16,NE,35,1.0,1.0,78,0.00,,OVC048,0.00,VWS V14.01,2013-05-04 05:54:00,
2013-05-04 01:59:00,58.9,52.1,30.16,NE,41,0.0,0.0,78,0.00,,OVC048,0.00,VWS V14.01,2013-05-04 05:59:00,
2013-05-04 02:04:00,58.7,51.9,30.15,WNW,289,0.0,0.0,78,0.00,,OVC120,0.00,VWS V14.01,2013-05-04 06:04:00,
2013-05-04 02:09:00,58.7,52.2,30.15,North,358,0.0,0.0,79,0.00,,OVC120,0.00,VWS V14.01,2013-05-04 06:09:00,
2013-05-04 02:14:00,58.7,52.2,30.15,SSW,212,0.0,1.0,79,0.00,,OVC120,0.00,VWS V14.01,2013-05-04 06:14:00,
2013-05-04 02:19:00,58.7,52.6,30.15,North,0,1.0,1.0,80,0.00,,OVC120,0.00,VWS V14.01,2013-05-04 06:19:00,
2013-05-04 02:24:00,58.7,52.6,30.15,NNE,31,0.0,2.0,80,0.00,,OVC120,0.00,VWS V14.01,2013-05-04 06:24:00,
2013-05-04 02:29:00,58.7,52.9,30.15,East,91,0.0,1.0,81,0.00,,OVC120,0.00,VWS V14.01,2013-05-04 06:29:00,
2013-05-04 02:34:00,58.7,52.9,30.14,ENE,77,0.0,2.0,81,0.00,,OVC120,0.00,VWS V14.01,2013-05-04 06:34:00,
2013-05-04 02:39:00,58.7,52.9,30.14,NNE,24,0.0,0.0,81,0.00,,OVC120,0.00,VWS V14.01,2013-05-04 06:39:00,
2013-05-04 02:44:00,58.7,52.9,30.14,ESE,114,0.0,1.0,81,0.00,,OVC120,0.00,VWS V14.01,2013-05-04 06:44:00,
2013-05-04 02:49:00,58.6,52.8,30.13,NNW,336,0.0,0.0,81,0.00,,OVC120,0.00,VWS V14.01,2013-05-04 06:49:00,
2013-05-04 02:54:00,58.4,52.6,30.13,NNE,32,0.0,3.0,81,0.00,,OVC120,0.00,VWS V14.01,2013-05-04 06:54:00,
2013-05-04 02:59:00,58.1,52.0,30.13,NNW,335,0.0,0.0,80,0.00,,OVC120,0.00,VWS V14.01,2013-05-04 06:59:00,
2013-05-04 03:04:00,58.0,52.2,30.12,NE,46,0.0,0.0,81,0.00,,OVC060,0.00,VWS V14.01,2013-05-04 07:04:00,
2013-05-04 03:09:00,57.8,52.0,30.12,NW,315,0.0,0.0,81,0.00,,OVC060,0.00,VWS V14.01,2013-05-04 07:09:00,
2013-05-04 03:14:00,57.6,51.8,30.12,NW,312,1.0,1.0,81,0.00,,OVC060,0.00,VWS V14.01,2013-05-04 07:14:00,
2013-05-04 03:19:00,57.5,51.7,30.12,WNW,303,0.0,0.0,81,0.00,,OVC060,0.00,VWS V14.01,2013-05-04 07:19:00,
2013-05-04 03:25:00,57.5,51.7,30.12,WSW,245,0.0,0.0,81,0.00,,OVC060,0.00,VWS V14.01,2013-05-04 07:25:00,
2013-05-04 03:30:00,57.3,51.9,30.12,North,0,0.0,4.0,82,0.00,,OVC060,0.00,VWS V14.01,2013-05-04 07:30:00,
2013-05-04 03:35:00,57.3,52.2,30.12,NW,314,0.0,0.0,83,0.00,,OVC060,0.00,VWS V14.01,2013-05-04 07:35:00,
2013-05-04 03:40:00,57.2,52.1,30.12,NNW,348,0.0,0.0,83,0.00,,OVC060,0.00,VWS V14.01,2013-05-04 07:40:00,
2013-05-04 03:45:00,57.0,51.9,30.12,North,358,0.0,0.0,83,0.00,,OVC060,0.00,VWS V14.01,2013-05-04 07:45:00,
2013-05-04 03:50:00,57.0,52.2,30.12,NNE,19,4.0,4.0,84,0.00,,OVC060,0.00,VWS V14.01,2013-05-04 07:50:00,
2013-05-04 03:55:00,56.9,52.1,30.12,SSW,212,0.0,0.0,84,0.00,,OVC060,0.00,VWS V14.01,2013-05-04 07:55:00,
2013-05-04 04:00:00,56.7,52.2,30.12,North,6,0.0,0.0,85,0.00,,OVC060,0.00,VWS V14.01,2013-05-04 08:00:00,
2013-05-04 04:05:00,56.6,52.2,30.12,ENE,61,0.0,0.0,85,0.00,,-RA,0.00,VWS V14.01,2013-05-04 08:05:00,
2013-05-04 04:10:00,56.5,52.4,30.12,ENE,58,0.0,0.0,86,0.01,,-RA,0.01,VWS V14.01,2013-05-04 08:10:00,
2013-05-04 04:15:00,56.3,52.5,30.12,NW,314,0.0,0.0,87,0.01,,-RA,0.01,VWS V14.01,2013-05-04 08:15:00,
2013-05-04 04:20:00,56.2,52.4,30.12,East,90,0.0,0.0,87,0.01,,-RA,0.01,VWS V14.01,2013-05-04 08:20:00,
2013-05-04 04:25:00,55.9,52.4,30.12,WNW,302,0.0,3.0,88,0.01,,-RA,0.01,VWS V14.01,2013-05-04 08:25:00,
2013-05-04 04:30:00,55.7,52.5,30.12,NW,304,0.0,0.0,89,0.02,,-RA,0.02,VWS V14.01,2013-05-04 08:30:00,
2013-05-04 04:36:00,55.6,52.7,30.12,North,358,0.0,1.0,90,0.02,,-RA,0.02,VWS V14.01,2013-05-04 08:36:00,
2013-05-04 04:41:00,55.4,52.5,30.12,NNW,338,0.0,0.0,90,0.02,,-RA,0.02,VWS V14.01,2013-05-04 08:41:00,
2013-05-04 04:46:00,55.3,52.4,30.12,WNW,290,0.0,0.0,90,0.02,,-RA,0.02,VWS V14.01,2013-05-04 08:46:00,
2013-05-04 04:51:00,55.1,52.5,30.12,WSW,248,0.0,0.0,91,0.02,,-RA,0.02,VWS V14.01,2013-05-04 08:51:00,
2013-05-04 04:56:00,55.1,52.5,30.12,NE,49,0.0,0.0,91,0.03,,-RA,0.03,VWS V14.01,2013-05-04 08:56:00,
2013-05-04 05:01:00,55.0,52.4,30.12,NE,49,0.0,0.0,91,0.03,,-RA,0.03,VWS V14.01,2013-05-04 09:01:00,
2013-05-04 05:06:00,55.0,52.7,30.12,NNW,337,0.0,0.0,92,0.03,,-RA,0.03,VWS V14.01,2013-05-04 09:06:00,
2013-05-04 05:11:00,54.8,52.5,30.12,NNW,331,0.0,0.0,92,0.02,,-RA,0.03,VWS V14.01,2013-05-04 09:11:00,
2013-05-04 05:16:00,54.8,52.5,30.12,NNW,331,0.0,0.0,92,0.02,,-RA,0.03,VWS V14.01,2013-05-04 09:16:00,
2013-05-04 05:21:00,54.7,52.4,30.12,NW,320,0.0,4.0,92,0.02,,-RA,0.03,VWS V14.01,2013-05-04 09:21:00,
2013-05-04 05:26:00,54.7,52.4,30.12,WNW,295,0.0,0.0,92,0.02,,-RA,0.03,VWS V14.01,2013-05-04 09:26:00,
2013-05-04 05:31:00,54.5,52.2,30.12,North,358,0.0,0.0,92,0.02,,-RA,0.04,VWS V14.01,2013-05-04 09:31:00,
2013-05-04 05:36:00,54.5,52.2,30.12,North,354,0.0,0.0,92,0.02,,-RA,0.04,VWS V14.01,2013-05-04 09:36:00,
2013-05-04 05:41:00,54.5,52.2,30.12,West,269,1.0,1.0,92,0.02,,-RA,0.04,VWS V14.01,2013-05-04 09:41:00,
2013-05-04 05:47:00,54.5,52.2,30.12,NNW,327,0.0,0.0,92,0.02,,-RA,0.04,VWS V14.01,2013-05-04 09:47:00,
2013-05-04 05:52:00,54.5,52.5,30.12,North,351,0.0,0.0,93,0.02,,-RA,0.04,VWS V14.01,2013-05-04 09:52:00,
2013-05-04 05:57:00,54.5,52.5,30.12,WSW,251,0.0,0.0,93,0.01,,-RA,0.04,VWS V14.01,2013-05-04 09:57:00,
2013-05-04 06:02:00,54.5,52.5,30.13,West,260,0.0,0.0,93,0.01,,-RA,0.04,VWS V14.01,2013-05-04 10:02:00,
2013-05-04 06:07:00,54.5,52.5,30.13,WNW,284,0.0,0.0,93,0.01,,-RA,0.04,VWS V14.01,2013-05-04 10:07:00,
2013-05-04 06:12:00,54.5,52.5,30.13,SSE,147,0.0,1.0,93,0.01,,-RA,0.04,VWS V14.01,2013-05-04 10:12:00,
2013-05-04 06:17:00,54.5,52.5,30.13,SSE,156,0.0,0.0,93,0.01,,-RA,0.04,VWS V14.01,2013-05-04 10:17:00,
2013-05-04 06:22:00,54.5,52.5,30.13,WSW,240,0.0,0.0,93,0.01,,-RA,0.04,VWS V14.01,2013-05-04 10:22:00,
2013-05-04 06:27:00,54.5,52.5,30.13,WSW,247,0.0,0.0,93,0.01,,-RA,0.04,VWS V14.01,2013-05-04 10:27:00,
2013-05-04 06:32:00,54.5,52.5,30.14,NNW,339,0.0,1.0,93,0.00,,-RA,0.04,VWS V14.01,2013-05-04 10:32:00,
2013-05-04 06:37:00,54.5,52.5,30.14,ENE,73,0.0,0.0,93,0.00,,-RA,0.04,VWS V14.01,2013-05-04 10:37:00,
2013-05-04 06:43:00,54.5,52.5,30.14,ENE,73,0.0,0.0,93,0.00,,-RA,0.04,VWS V14.01,2013-05-04 10:43:00,
2013-05-04 06:48:00,54.7,52.7,30.14,North,10,0.0,0.0,93,0.00,,-RA,0.04,VWS V14.01,2013-05-04 10:48:00,
2013-05-04 06:53:00,54.7,52.7,30.14,North,10,0.0,0.0,93,0.00,,-RA,0.04,VWS V14.01,2013-05-04 10:53:00,
2013-05-04 06:58:00,54.8,52.8,30.14,NNE,14,0.0,0.0,93,0.00,,-RA,0.04,VWS V14.01,2013-05-04 10:58:00,
2013-05-04 07:03:00,55.0,53.0,30.14,NNE,15,0.0,0.0,93,0.00,,-RA,0.04,VWS V14.01,2013-05-04 11:03:00,
2013-05-04 07:08:00,55.1,53.1,30.14,NNE,15,0.0,0.0,93,0.00,,-RA,0.04,VWS V14.01,2013-05-04 11:08:00,
2013-05-04 07:13:00,55.3,53.3,30.14,North,352,0.0,0.0,93,0.00,,-RA,0.04,VWS V14.01,2013-05-04 11:13:00,
2013-05-04 07:18:00,55.4,53.4,30.15,North,0,0.0,0.0,93,0.00,,-RA,0.04,VWS V14.01,2013-05-04 11:18:00,
2013-05-04 07:23:00,55.6,53.6,30.15,WNW,292,0.0,0.0,93,0.00,,-RA,0.04,VWS V14.01,2013-05-04 11:23:00,
2013-05-04 07:28:00,55.7,53.7,30.15,WNW,297,0.0,0.0,93,0.00,,-RA,0.04,VWS V14.01,2013-05-04 11:28:00,
2013-05-04 07:33:00,56.0,54.0,30.15,WNW,297,0.0,0.0,93,0.00,,-RA,0.04,VWS V14.01,2013-05-04 11:33:00,
2013-05-04 07:38:00,56.3,54.3,30.15,West,274,0.0,6.0,93,0.00,,-RA,0.04,VWS V14.01,2013-05-04 11:38:00,
2013-05-04 07:44:00,56.5,54.2,30.15,ENE,72,0.0,0.0,92,0.00,,-RA,0.04,VWS V14.01,2013-05-04 11:44:00,
2013-05-04 07:49:00,56.6,54.3,30.15,NNW,348,0.0,0.0,92,0.00,,-RA,0.04,VWS V14.01,2013-05-04 11:49:00,
2013-05-04 07:55:00,56.7,54.4,30.15,NNW,346,0.0,0.0,92,0.00,,-RA,0.04,VWS V14.01,2013-05-04 11:55:00,
2013-05-04 08:00:00,56.9,54.3,30.15,WNW,296,0.0,0.0,91,0.00,,-RA,0.04,VWS V14.01,2013-05-04 12:00:00,
2013-05-04 08:06:00,56.9,54.3,30.15,East,91,0.0,1.0,91,0.00,,-RA,0.04,VWS V14.01,2013-05-04 12:06:00,
2013-05-04 08:11:00,56.9,54.3,30.15,North,358,0.0,0.0,91,0.00,,-RA,0.04,VWS V14.01,2013-05-04 12:11:00,
2013-05-04 08:16:00,56.9,54.3,30.15,NNW,339,0.0,0.0,91,0.01,,-RA,0.05,VWS V14.01,2013-05-04 12:16:00,
2013-05-04 08:22:00,56.9,54.3,30.15,North,0,0.0,5.0,91,0.01,,-RA,0.05,VWS V14.01,2013-05-04 12:22:00,
2013-05-04 08:27:00,57.0,54.7,30.15,ESE,103,2.0,2.0,92,0.01,,-RA,0.05,VWS V14.01,2013-05-04 12:27:00,
2013-05-04 08:32:00,57.2,54.9,30.15,WNW,296,0.0,0.0,92,0.01,,-RA,0.05,VWS V14.01,2013-05-04 12:32:00,
2013-05-04 08:37:00,57.2,54.9,30.15,NE,44,0.0,1.0,92,0.01,,-RA,0.05,VWS V14.01,2013-05-04 12:37:00,
2013-05-04 08:42:00,57.2,54.9,30.15,NNW,343,1.0,3.0,92,0.01,,-RA,0.05,VWS V14.01,2013-05-04 12:42:00,
2013-05-04 08:48:00,57.2,54.9,30.14,West,276,0.0,1.0,92,0.02,,-RA,0.06,VWS V14.01,2013-05-04 12:48:00,
2013-05-04 08:53:00,57.3,55.0,30.14,NNE,20,0.0,0.0,92,0.02,,-RA,0.06,VWS V14.01,2013-05-04 12:53:00,
2013-05-04 08:58:00,57.5,55.2,30.14,NW,309,0.0,2.0,92,0.02,,-RA,0.06,VWS V14.01,2013-05-04 12:58:00,
2013-05-04 09:03:00,57.5,55.2,30.14,SW,229,0.0,0.0,92,0.02,,-RA,0.06,VWS V14.01,2013-05-04 13:03:00,
2013-05-04 09:04:00,57.5,55.2,30.14,SW,229,0.0,0.0,92,0.02,,-RA,0.06,VWS V14.01,2013-05-04 13:04:00,
2013-05-04 09:09:00,57.5,55.2,30.14,NNE,21,0.0,1.0,92,0.02,,-RA,0.06,VWS V14.01,2013-05-04 13:09:00,
2013-05-04 09:14:00,57.5,54.9,30.14,NE,34,1.0,1.0,91,0.02,,-RA,0.06,VWS V14.01,2013-05-04 13:14:00,
2013-05-04 09:19:00,57.6,55.0,30.14,North,358,0.0,1.0,91,0.01,,-RA,0.06,VWS V14.01,2013-05-04 13:19:00,
2013-05-04 09:24:00,57.8,55.2,30.14,North,9,6.0,6.0,91,0.01,,-RA,0.06,VWS V14.01,2013-05-04 13:24:00,
2013-05-04 09:29:00,58.1,55.2,30.14,NW,318,1.0,1.0,90,0.01,,-RA,0.06,VWS V14.01,2013-05-04 13:29:00,
2013-05-04 09:34:00,58.4,55.5,30.14,NW,311,0.0,1.0,90,0.01,,-RA,0.06,VWS V14.01,2013-05-04 13:34:00,
2013-05-04 09:39:00,59.0,56.4,30.14,NNW,348,1.0,1.0,91,0.01,,-RA,0.06,VWS V14.01,2013-05-04 13:39:00,
2013-05-04 09:44:00,59.6,56.4,30.14,WNW,299,0.0,4.0,89,0.01,,-RA,0.06,VWS V14.01,2013-05-04 13:44:00,
2013-05-04 09:49:00,59.9,56.3,30.14,NE,44,0.0,0.0,88,0.00,,-RA,0.06,VWS V14.01,2013-05-04 13:49:00,
2013-05-04 09:55:00,59.9,56.7,30.14,WNW,291,1.0,1.0,89,0.00,,-RA,0.06,VWS V14.01,2013-05-04 13:55:00,
2013-05-04 10:00:00,60.5,56.9,30.15,East,96,0.0,0.0,88,0.00,,-RA,0.06,VWS V14.01,2013-05-04 14:00:00,
2013-05-04 10:05:00,60.9,57.0,30.15,ENE,68,0.0,1.0,87,0.00,,OVC150,0.06,VWS V14.01,2013-05-04 14:05:00,
2013-05-04 10:10:00,61.2,56.7,30.15,WSW,255,0.0,0.0,85,0.00,,OVC150,0.06,VWS V14.01,2013-05-04 14:10:00,
2013-05-04 10:15:00,61.0,56.1,30.15,NNW,331,1.0,1.0,84,0.00,,OVC150,0.06,VWS V14.01,2013-05-04 14:15:00,
2013-05-04 10:20:00,61.0,56.5,30.15,East,96,0.0,2.0,85,0.00,,OVC150,0.06,VWS V14.01,2013-05-04 14:20:00,
2013-05-04 10:25:00,61.0,56.1,30.15,NNE,19,0.0,0.0,84,0.00,,OVC150,0.06,VWS V14.01,2013-05-04 14:25:00,
2013-05-04 10:30:00,61.3,56.8,30.15,ENE,73,0.0,0.0,85,0.00,,OVC150,0.06,VWS V14.01,2013-05-04 14:30:00,
2013-05-04 10:35:00,61.6,56.7,30.15,NW,322,0.0,0.0,84,0.00,,OVC150,0.06,VWS V14.01,2013-05-04 14:35:00,
2013-05-04 10:40:00,61.8,56.6,30.15,NW,316,0.0,4.0,83,0.00,,OVC150,0.06,VWS V14.01,2013-05-04 14:40:00,
2013-05-04 10:45:00,62.0,57.1,30.15,NE,38,0.0,1.0,84,0.00,,OVC150,0.06,VWS V14.01,2013-05-04 14:45:00,
2013-05-04 10:50:00,62.0,56.8,30.15,ESE,102,0.0,3.0,83,0.00,,OVC150,0.06,VWS V14.01,2013-05-04 14:50:00,
2013-05-04 10:56:00,62.0,56.5,30.15,NNE,21,0.0,0.0,82,0.00,,OVC150,0.06,VWS V14.01,2013-05-04 14:56:00,
2013-05-04 11:01:00,62.0,57.1,30.15,ENE,59,0.0,0.0,84,0.00,,OVC015,0.06,VWS V14.01,2013-05-04 15:01:00,
2013-05-04 11:06:00,62.1,56.5,30.15,SW,234,0.0,0.0,82,0.00,,OVC015,0.06,VWS V14.01,2013-05-04 15:06:00,
2013-05-04 11:11:00,62.3,56.7,30.15,NNE,13,0.0,0.0,82,0.00,,OVC015,0.06,VWS V14.01,2013-05-04 15:11:00,
2013-05-04 11:16:00,62.4,56.8,30.15,WSW,250,0.0,0.0,82,0.00,,OVC015,0.06,VWS V14.01,2013-05-04 15:16:00,
2013-05-04 11:21:00,62.7,57.1,30.15,WNW,299,1.0,3.0,82,0.00,,OVC015,0.06,VWS V14.01,2013-05-04 15:21:00,
2013-05-04 11:26:00,62.9,57.3,30.15,NNW,335,0.0,4.0,82,0.00,,OVC015,0.06,VWS V14.01,2013-05-04 15:26:00,
2013-05-04 11:31:00,63.2,57.3,30.14,ENE,75,0.0,3.0,81,0.00,,OVC015,0.06,VWS V14.01,2013-05-04 15:31:00,
2013-05-04 11:36:00,63.7,57.8,30.14,SE,138,0.0,4.0,81,0.00,,OVC015,0.06,VWS V14.01,2013-05-04 15:36:00,
2013-05-04 11:41:00,64.0,57.4,30.14,North,356,1.0,2.0,79,0.00,,OVC015,0.06,VWS V14.01,2013-05-04 15:41:00,
2013-05-04 11:46:00,64.5,57.8,30.14,ENE,65,0.0,3.0,79,0.00,,OVC015,0.06,VWS V14.01,2013-05-04 15:46:00,
2013-05-04 11:51:00,64.5,57.5,30.14,WNW,286,0.0,3.0,78,0.00,,OVC015,0.06,VWS V14.01,2013-05-04 15:51:00,
2013-05-04 11:56:00,64.7,58.0,30.14,ENE,67,0.0,2.0,79,0.00,,OVC015,0.06,VWS V14.01,2013-05-04 15:56:00,
2013-05-04 12:01:00,64.8,57.8,30.14,North,7,1.0,3.0,78,0.00,,OVC180,0.06,VWS V14.01,2013-05-04 16:01:00,
2013-05-04 12:06:00,64.8,57.8,30.14,NNE,18,0.0,1.0,78,0.00,,OVC180,0.06,VWS V14.01,2013-05-04 16:06:00,
2013-05-04 12:11:00,64.7,58.4,30.14,ENE,68,2.0,2.0,80,0.00,,OVC180,0.06,VWS V14.01,2013-05-04 16:11:00,
2013-05-04 12:16:00,64.8,58.1,30.13,NE,53,0.0,0.0,79,0.00,,OVC180,0.06,VWS V14.01,2013-05-04 16:16:00,
2013-05-04 12:21:00,65.2,58.9,30.13,ENE,76,1.0,3.0,80,0.00,,OVC180,0.06,VWS V14.01,2013-05-04 16:21:00,
2013-05-04 12:27:00,65.0,58.0,30.13,East,79,0.0,0.0,78,0.00,,OVC180,0.06,VWS V14.01,2013-05-04 16:27:00,
2013-05-04 12:32:00,65.0,58.3,30.13,North,356,0.0,0.0,79,0.00,,OVC180,0.06,VWS V14.01,2013-05-04 16:32:00,
2013-05-04 12:37:00,65.2,58.5,30.13,ENE,67,4.0,5.0,79,0.00,,OVC180,0.06,VWS V14.01,2013-05-04 16:37:00,
2013-05-04 12:42:00,65.5,58.5,30.13,North,9,0.0,0.0,78,0.00,,OVC180,0.06,VWS V14.01,2013-05-04 16:42:00,
2013-05-04 12:47:00,65.6,58.2,30.12,North,352,0.0,0.0,77,0.00,,OVC180,0.06,VWS V14.01,2013-05-04 16:47:00,
2013-05-04 12:52:00,65.6,58.6,30.12,West,270,0.0,0.0,78,0.00,,OVC180,0.06,VWS V14.01,2013-05-04 16:52:00,
2013-05-04 12:57:00,66.0,59.0,30.12,ENE,77,0.0,2.0,78,0.00,,OVC180,0.06,VWS V14.01,2013-05-04 16:57:00,
2013-05-04 13:02:00,66.8,59.0,30.12,ESE,114,0.0,3.0,76,0.00,,OVC031,0.06,VWS V14.01,2013-05-04 17:02:00,
2013-05-04 13:07:00,66.8,59.0,30.12,East,92,0.0,3.0,76,0.00,,OVC031,0.06,VWS V14.01,2013-05-04 17:07:00,
2013-05-04 13:12:00,66.8,59.0,30.12,WNW,295,0.0,2.0,76,0.00,,OVC031,0.06,VWS V14.01,2013-05-04 17:12:00,
2013-05-04 13:17:00,66.9,59.1,30.12,North,4,0.0,2.0,76,0.00,,OVC031,0.06,VWS V14.01,2013-05-04 17:17:00,
2013-05-04 13:22:00,67.1,59.3,30.12,ESE,106,0.0,0.0,76,0.00,,OVC031,0.06,VWS V14.01,2013-05-04 17:22:00,
2013-05-04 13:27:00,67.6,60.1,30.12,NNE,33,1.0,3.0,77,0.00,,OVC031,0.06,VWS V14.01,2013-05-04 17:27:00,
2013-05-04 13:32:00,67.8,60.0,30.11,North,11,4.0,4.0,76,0.00,,OVC031,0.06,VWS V14.01,2013-05-04 17:32:00,
2013-05-04 13:37:00,67.3,59.1,30.11,NE,50,5.0,10.0,75,0.00,,OVC031,0.06,VWS V14.01,2013-05-04 17:37:00,
2013-05-04 13:42:00,66.9,59.5,30.11,NE,34,1.0,1.0,77,0.00,,OVC031,0.06,VWS V14.01,2013-05-04 17:42:00,
2013-05-04 13:47:00,66.8,58.6,30.11,SW,227,1.0,6.0,75,0.00,,OVC031,0.06,VWS V14.01,2013-05-04 17:47:00,
2013-05-04 13:52:00,66.6,59.2,30.11,NNW,342,0.0,4.0,77,0.00,,OVC031,0.06,VWS V14.01,2013-05-04 17:52:00,
2013-05-04 13:57:00,66.8,59.0,30.11,WNW,284,0.0,0.0,76,0.00,,OVC031,0.06,VWS V14.01,2013-05-04 17:57:00,
2013-05-04 14:03:00,67.1,59.3,30.11,ESE,105,2.0,3.0,76,0.00,,OVC180,0.06,VWS V14.01,2013-05-04 18:03:00,
2013-05-04 14:08:00,67.6,59.4,30.11,ENE,60,0.0,0.0,75,0.00,,OVC180,0.06,VWS V14.01,2013-05-04 18:08:00,
2013-05-04 14:13:00,67.8,59.6,30.11,NNE,14,0.0,1.0,75,0.00,,OVC180,0.06,VWS V14.01,2013-05-04 18:13:00,
2013-05-04 14:18:00,67.9,59.3,30.11,East,79,3.0,3.0,74,0.00,,OVC180,0.06,VWS V14.01,2013-05-04 18:18:00,
2013-05-04 14:23:00,67.8,59.2,30.11,ENE,73,0.0,0.0,74,0.00,,OVC180,0.06,VWS V14.01,2013-05-04 18:23:00,
2013-05-04 14:28:00,67.4,59.2,30.11,North,11,0.0,0.0,75,0.00,,OVC180,0.06,VWS V14.01,2013-05-04 18:28:00,
2013-05-04 14:33:00,67.4,59.6,30.11,NW,322,0.0,0.0,76,0.00,,OVC180,0.06,VWS V14.01,2013-05-04 18:33:00,
2013-05-04 14:38:00,67.4,59.6,30.11,WNW,290,4.0,6.0,76,0.00,,OVC180,0.06,VWS V14.01,2013-05-04 18:38:00,
2013-05-04 14:43:00,67.3,59.1,30.11,SSE,165,0.0,1.0,75,0.00,,OVC180,0.06,VWS V14.01,2013-05-04 18:43:00,
2013-05-04 14:48:00,67.1,58.9,30.10,NNW,347,0.0,0.0,75,0.00,,OVC180,0.06,VWS V14.01,2013-05-04 18:48:00,
2013-05-04 14:53:00,67.1,59.3,30.10,NE,56,0.0,2.0,76,0.00,,OVC180,0.06,VWS V14.01,2013-05-04 18:53:00,
2013-05-04 14:58:00,66.9,58.7,30.10,ESE,120,0.0,1.0,75,0.00,,OVC180,0.06,VWS V14.01,2013-05-04 18:58:00,
2013-05-04 15:03:00,67.1,59.3,30.10,East,96,0.0,1.0,76,0.00,,-RA,0.06,VWS V14.01,2013-05-04 19:03:00,
2013-05-04 15:09:00,67.1,59.3,30.10,ENE,66,2.0,4.0,76,0.00,,-RA,0.06,VWS V14.01,2013-05-04 19:09:00,
2013-05-04 15:14:00,66.9,59.5,30.10,ENE,75,0.0,4.0,77,0.00,,-RA,0.06,VWS V14.01,2013-05-04 19:14:00,
2013-05-04 15:19:00,67.1,60.0,30.10,ENE,73,5.0,6.0,78,0.00,,-RA,0.06,VWS V14.01,2013-05-04 19:19:00,
2013-05-04 15:24:00,67.1,59.3,30.10,NE,40,0.0,0.0,76,0.00,,-RA,0.06,VWS V14.01,2013-05-04 19:24:00,
2013-05-04 15:29:00,66.9,58.7,30.10,North,0,1.0,5.0,75,0.00,,-RA,0.06,VWS V14.01,2013-05-04 19:29:00,
2013-05-04 15:34:00,66.3,58.9,30.09,NNW,347,0.0,1.0,77,0.00,,-RA,0.06,VWS V14.01,2013-05-04 19:34:00,
2013-05-04 15:39:00,66.1,59.0,30.09,East,88,0.0,1.0,78,0.00,,-RA,0.06,VWS V14.01,2013-05-04 19:39:00,
2013-05-04 15:44:00,66.0,59.0,30.09,NE,49,0.0,3.0,78,0.00,,-RA,0.06,VWS V14.01,2013-05-04 19:44:00,
2013-05-04 15:49:00,65.8,59.5,30.09,WNW,298,0.0,0.0,80,0.00,,-RA,0.06,VWS V14.01,2013-05-04 19:49:00,
2013-05-04 15:54:00,65.5,59.9,30.09,ESE,105,0.0,0.0,82,0.00,,-RA,0.06,VWS V14.01,2013-05-04 19:54:00,
2013-05-04 15:59:00,65.2,60.2,30.09,NW,314,0.0,0.0,84,0.01,,-RA,0.07,VWS V14.01,2013-05-04 19:59:00,
2013-05-04 16:04:00,65.0,60.7,30.09,East,94,0.0,1.0,86,0.01,,-RA,0.07,VWS V14.01,2013-05-04 20:04:00,
2013-05-04 16:09:00,65.0,61.0,30.09,NE,41,0.0,0.0,87,0.01,,-RA,0.07,VWS V14.01,2013-05-04 20:09:00,
2013-05-04 16:14:00,64.8,61.2,30.09,NNE,26,0.0,1.0,88,0.01,,-RA,0.07,VWS V14.01,2013-05-04 20:14:00,
2013-05-04 16:19:00,64.7,61.1,30.09,ENE,72,3.0,3.0,88,0.01,,-RA,0.07,VWS V14.01,2013-05-04 20:19:00,
2013-05-04 16:24:00,64.8,61.8,30.09,NNE,31,0.0,0.0,90,0.01,,-RA,0.07,VWS V14.01,2013-05-04 20:24:00,
2013-05-04 16:29:00,64.8,61.2,30.08,NW,326,0.0,0.0,88,0.02,,-RA,0.08,VWS V14.01,2013-05-04 20:29:00,
2013-05-04 16:34:00,64.7,61.1,30.08,ENE,66,0.0,0.0,88,0.02,,-RA,0.08,VWS V14.01,2013-05-04 20:34:00,
2013-05-04 16:39:00,64.7,60.8,30.08,NE,50,0.0,0.0,87,0.02,,-RA,0.08,VWS V14.01,2013-05-04 20:39:00,
2013-05-04 16:45:00,64.7,60.8,30.08,NNW,327,0.0,0.0,87,0.02,,-RA,0.08,VWS V14.01,2013-05-04 20:45:00,
2013-05-04 16:50:00,64.7,60.8,30.08,ENE,58,3.0,5.0,87,0.02,,-RA,0.08,VWS V14.01,2013-05-04 20:50:00,
2013-05-04 16:55:00,64.7,60.4,30.08,NE,46,0.0,0.0,86,0.02,,-RA,0.08,VWS V14.01,2013-05-04 20:55:00,
2013-05-04 17:00:00,64.8,60.8,30.08,East,79,0.0,0.0,87,0.01,,-RA,0.08,VWS V14.01,2013-05-04 21:00:00,
2013-05-04 17:05:00,65.0,61.0,30.08,North,354,0.0,0.0,87,0.01,,-RA,0.08,VWS V14.01,2013-05-04 21:05:00,
2013-05-04 17:10:00,64.8,60.8,30.08,NW,320,0.0,0.0,87,0.01,,-RA,0.08,VWS V14.01,2013-05-04 21:10:00,
2013-05-04 17:15:00,64.7,60.8,30.08,NW,321,0.0,0.0,87,0.01,,-RA,0.08,VWS V14.01,2013-05-04 21:15:00,
2013-05-04 17:20:00,64.5,60.9,30.08,East,86,4.0,6.0,88,0.01,,-RA,0.08,VWS V14.01,2013-05-04 21:20:00,
2013-05-04 17:25:00,64.5,61.2,30.08,NNE,32,0.0,1.0,89,0.01,,-RA,0.08,VWS V14.01,2013-05-04 21:25:00,
2013-05-04 17:30:00,64.3,60.7,30.08,WNW,288,0.0,0.0,88,0.00,,-RA,0.08,VWS V14.01,2013-05-04 21:30:00,
2013-05-04 17:35:00,64.2,60.9,30.08,North,349,0.0,0.0,89,0.00,,-RA,0.08,VWS V14.01,2013-05-04 21:35:00,
2013-05-04 17:40:00,64.2,60.9,30.08,NE,46,0.0,0.0,89,0.00,,-RA,0.08,VWS V14.01,2013-05-04 21:40:00,
2013-05-04 17:45:00,64.0,60.7,30.08,SSW,197,0.0,1.0,89,0.00,,-RA,0.08,VWS V14.01,2013-05-04 21:45:00,
2013-05-04 17:50:00,64.0,60.4,30.08,WNW,299,0.0,3.0,88,0.00,,-RA,0.08,VWS V14.01,2013-05-04 21:50:00,
2013-05-04 17:55:00,63.9,60.3,30.08,East,91,0.0,3.0,88,0.00,,-RA,0.08,VWS V14.01,2013-05-04 21:55:00,
2013-05-04 18:00:00,64.0,60.4,30.08,ENE,72,0.0,0.0,88,0.00,,OVC080,0.08,VWS V14.01,2013-05-04 22:00:00,
2013-05-04 18:05:00,64.2,60.9,30.08,North,358,0.0,0.0,89,0.00,,OVC080,0.08,VWS V14.01,2013-05-04 22:05:00,
2013-05-04 18:10:00,64.3,61.0,30.08,NNE,14,0.0,3.0,89,0.01,,OVC080,0.09,VWS V14.01,2013-05-04 22:10:00,
2013-05-04 18:15:00,64.2,60.9,30.07,NNE,23,0.0,2.0,89,0.01,,OVC080,0.09,VWS V14.01,2013-05-04 22:15:00,
2013-05-04 18:20:00,64.0,61.0,30.07,NE,44,0.0,3.0,90,0.01,,OVC080,0.09,VWS V14.01,2013-05-04 22:20:00,
2013-05-04 18:25:00,63.9,60.6,30.07,East,80,0.0,0.0,89,0.01,,OVC080,0.09,VWS V14.01,2013-05-04 22:25:00,
2013-05-04 18:30:00,63.7,60.4,30.07,ENE,58,0.0,0.0,89,0.01,,OVC080,0.09,VWS V14.01,2013-05-04 22:30:00,
2013-05-04 18:35:00,63.5,60.2,30.07,NNW,341,0.0,1.0,89,0.01,,OVC080,0.09,VWS V14.01,2013-05-04 22:35:00,
2013-05-04 18:40:00,63.5,60.5,30.07,East,79,0.0,0.0,90,0.01,,OVC080,0.09,VWS V14.01,2013-05-04 22:40:00,
2013-05-04 18:45:00,63.4,60.4,30.08,NE,44,0.0,2.0,90,0.01,,OVC080,0.09,VWS V14.01,2013-05-04 22:45:00,
2013-05-04 18:50:00,63.2,60.2,30.08,NE,37,0.0,4.0,90,0.01,,OVC080,0.09,VWS V14.01,2013-05-04 22:50:00,
2013-05-04 18:55:00,63.1,60.1,30.08,NE,41,0.0,0.0,90,0.01,,OVC080,0.09,VWS V14.01,2013-05-04 22:55:00,
2013-05-04 19:00:00,63.1,60.1,30.08,ENE,60,0.0,0.0,90,0.01,,OVC045,0.09,VWS V14.01,2013-05-04 23:00:00,
2013-05-04 19:05:00,63.1,60.1,30.08,NE,35,0.0,0.0,90,0.01,,OVC045,0.09,VWS V14.01,2013-05-04 23:05:00,
2013-05-04 19:10:00,63.1,60.1,30.08,ENE,66,0.0,0.0,90,0.00,,OVC045,0.09,VWS V14.01,2013-05-04 23:10:00,
2013-05-04 19:15:00,63.1,60.1,30.08,ENE,66,0.0,0.0,90,0.00,,OVC045,0.09,VWS V14.01,2013-05-04 23:15:00,
2013-05-04 19:20:00,62.9,59.9,30.08,NNW,346,0.0,0.0,90,0.00,,OVC045,0.09,VWS V14.01,2013-05-04 23:20:00,
2013-05-04 19:25:00,62.9,59.9,30.08,NE,39,0.0,3.0,90,0.00,,OVC045,0.09,VWS V14.01,2013-05-04 23:25:00,
2013-05-04 19:30:00,62.9,59.9,30.09,NNW,328,1.0,1.0,90,0.00,,OVC045,0.09,VWS V14.01,2013-05-04 23:30:00,
2013-05-04 19:35:00,62.9,59.9,30.09,WNW,291,0.0,0.0,90,0.00,,OVC045,0.09,VWS V14.01,2013-05-04 23:35:00,
2013-05-04 19:40:00,62.9,59.9,30.09,North,358,0.0,0.0,90,0.00,,OVC045,0.09,VWS V14.01,2013-05-04 23:40:00,
2013-05-04 19:45:00,62.7,59.7,30.09,West,268,0.0,3.0,90,0.00,,OVC045,0.09,VWS V14.01,2013-05-04 23:45:00,
2013-05-04 19:50:00,62.7,59.7,30.09,NNE,23,0.0,0.0,90,0.00,,OVC045,0.09,VWS V14.01,2013-05-04 23:50:00,
2013-05-04 19:55:00,62.7,59.7,30.09,WNW,282,0.0,0.0,90,0.00,,OVC045,0.09,VWS V14.01,2013-05-04 23:55:00,
2013-05-04 20:00:00,62.7,59.4,30.09,NNE,17,0.0,0.0,89,0.00,,OVC040,0.09,VWS V14.01,2013-05-05 00:00:00,
2013-05-04 20:05:00,62.7,59.4,30.09,North,2,0.0,0.0,89,0.00,,OVC040,0.09,VWS V14.01,2013-05-05 00:05:00,
2013-05-04 20:10:00,62.7,59.4,30.09,NNW,339,0.0,1.0,89,0.00,,OVC040,0.09,VWS V14.01,2013-05-05 00:10:00,
2013-05-04 20:15:00,62.7,59.4,30.10,ENE,68,0.0,4.0,89,0.00,,OVC040,0.09,VWS V14.01,2013-05-05 00:15:00,
2013-05-04 20:20:00,62.7,59.4,30.10,WNW,295,0.0,0.0,89,0.00,,OVC040,0.09,VWS V14.01,2013-05-05 00:20:00,
2013-05-04 20:25:00,62.6,59.3,30.10,ESE,102,0.0,1.0,89,0.00,,OVC040,0.09,VWS V14.01,2013-05-05 00:25:00,
2013-05-04 20:30:00,62.6,59.3,30.09,NW,311,0.0,0.0,89,0.00,,OVC040,0.09,VWS V14.01,2013-05-05 00:30:00,
2013-05-04 20:35:00,62.6,59.3,30.09,East,84,1.0,1.0,89,0.00,,OVC040,0.09,VWS V14.01,2013-05-05 00:35:00,
2013-05-04 20:40:00,62.6,59.3,30.09,NE,56,0.0,0.0,89,0.00,,OVC040,0.09,VWS V14.01,2013-05-05 00:40:00,
2013-05-04 20:45:00,62.4,59.1,30.09,NNW,346,0.0,3.0,89,0.00,,OVC040,0.09,VWS V14.01,2013-05-05 00:45:00,
2013-05-04 20:50:00,62.4,59.1,30.09,North,0,4.0,4.0,89,0.00,,OVC040,0.09,VWS V14.01,2013-05-05 00:50:00,
2013-05-04 20:55:00,62.4,59.1,30.09,NE,52,0.0,5.0,89,0.00,,OVC040,0.09,VWS V14.01,2013-05-05 00:55:00,
2013-05-04 21:00:00,62.3,59.0,30.08,ESE,113,5.0,5.0,89,0.00,,-RA,0.09,VWS V14.01,2013-05-05 01:00:00,
2013-05-04 21:05:00,62.3,59.3,30.08,ESE,105,0.0,0.0,90,0.00,,-RA,0.09,VWS V14.01,2013-05-05 01:05:00,
2013-05-04 21:10:00,62.1,59.1,30.08,NNE,28,0.0,1.0,90,0.00,,-RA,0.09,VWS V14.01,2013-05-05 01:10:00,
2013-05-04 21:15:00,62.0,59.3,30.08,NNW,332,0.0,0.0,91,0.00,,-RA,0.09,VWS V14.01,2013-05-05 01:15:00,
2013-05-04 21:20:00,61.8,59.2,30.08,ENE,63,0.0,3.0,91,0.00,,-RA,0.09,VWS V14.01,2013-05-05 01:20:00,
2013-05-04 21:25:00,61.6,59.0,30.08,West,266,0.0,3.0,91,0.00,,-RA,0.09,VWS V14.01,2013-05-05 01:25:00,
2013-05-04 21:30:00,61.6,59.3,30.08,SE,141,0.0,0.0,92,0.00,,-RA,0.09,VWS V14.01,2013-05-05 01:30:00,
2013-05-04 21:35:00,61.5,59.5,30.08,NE,49,0.0,0.0,93,0.00,,-RA,0.09,VWS V14.01,2013-05-05 01:35:00,
2013-05-04 21:40:00,61.3,59.3,30.08,ENE,62,0.0,0.0,93,0.00,,-RA,0.09,VWS V14.01,2013-05-05 01:40:00,
2013-05-04 21:45:00,61.2,59.2,30.08,NNW,340,0.0,1.0,93,0.00,,-RA,0.09,VWS V14.01,2013-05-05 01:45:00,
2013-05-04 21:50:00,61.2,59.2,30.08,WNW,295,0.0,0.0,93,0.00,,-RA,0.09,VWS V14.01,2013-05-05 01:50:00,
2013-05-04 21:55:00,61.2,59.2,30.08,North,11,0.0,0.0,93,0.00,,-RA,0.09,VWS V14.01,2013-05-05 01:55:00,
2013-05-04 22:00:00,61.0,59.0,30.08,North,352,4.0,4.0,93,0.00,,OVC016,0.09,VWS V14.01,2013-05-05 02:00:00,
2013-05-04 22:05:00,61.0,59.0,30.08,NE,49,0.0,0.0,93,0.00,,OVC016,0.09,VWS V14.01,2013-05-05 02:05:00,
2013-05-04 22:10:00,61.2,59.2,30.08,NE,53,0.0,4.0,93,0.00,,OVC016,0.09,VWS V14.01,2013-05-05 02:10:00,
2013-05-04 22:15:00,61.2,59.2,30.08,East,101,0.0,5.0,93,0.00,,OVC016,0.09,VWS V14.01,2013-05-05 02:15:00,
2013-05-04 22:20:00,61.2,58.9,30.08,West,268,0.0,3.0,92,0.01,,OVC016,0.10,VWS V14.01,2013-05-05 02:20:00,
2013-05-04 22:25:00,61.3,59.0,30.08,NNE,13,1.0,2.0,92,0.01,,OVC016,0.10,VWS V14.01,2013-05-05 02:25:00,
2013-05-04 22:30:00,61.3,59.0,30.08,ENE,64,0.0,3.0,92,0.01,,OVC016,0.10,VWS V14.01,2013-05-05 02:30:00,
2013-05-04 22:35:00,61.3,59.0,30.08,NE,35,0.0,3.0,92,0.01,,OVC016,0.10,VWS V14.01,2013-05-05 02:35:00,
2013-05-04 22:40:00,61.3,59.0,30.08,ENE,59,0.0,3.0,92,0.01,,OVC016,0.10,VWS V14.01,2013-05-05 02:40:00,
2013-05-04 22:45:00,61.3,59.0,30.08,ENE,72,0.0,2.0,92,0.01,,OVC016,0.10,VWS V14.01,2013-05-05 02:45:00,
2013-05-04 22:50:00,61.3,59.0,30.08,NE,42,0.0,4.0,92,0.01,,OVC016,0.10,VWS V14.01,2013-05-05 02:50:00,
2013-05-04 22:55:00,61.3,59.0,30.08,NNE,14,0.0,2.0,92,0.01,,OVC016,0.10,VWS V14.01,2013-05-05 02:55:00,
2013-05-04 23:00:00,61.3,59.0,30.08,ENE,63,0.0,5.0,92,0.01,,OVC013,0.10,VWS V14.01,2013-05-05 03:00:00,
2013-05-04 23:05:00,61.3,59.0,30.08,WNW,301,0.0,1.0,92,0.01,,OVC013,0.10,VWS V14.01,2013-05-05 03:05:00,
2013-05-04 23:10:00,61.3,59.0,30.08,East,83,0.0,1.0,92,0.01,,OVC013,0.10,VWS V14.01,2013-05-05 03:10:00,
2013-05-04 23:15:00,61.3,59.0,30.07,NNW,340,2.0,11.0,92,0.01,,OVC013,0.10,VWS V14.01,2013-05-05 03:15:00,
2013-05-04 23:20:00,61.3,59.0,30.07,North,355,1.0,2.0,92,0.00,,OVC013,0.10,VWS V14.01,2013-05-05 03:20:00,
2013-05-04 23:25:00,61.3,59.0,30.07,North,0,0.0,3.0,92,0.00,,OVC013,0.10,VWS V14.01,2013-05-05 03:25:00,
2013-05-04 23:30:00,61.3,59.0,30.07,NE,56,1.0,3.0,92,0.00,,OVC013,0.10,VWS V14.01,2013-05-05 03:30:00,
2013-05-04 23:35:00,61.3,59.0,30.07,NNE,21,0.0,0.0,92,0.00,,OVC013,0.10,VWS V14.01,2013-05-05 03:35:00,
2013-05-04 23:40:00,61.5,59.2,30.07,NW,305,1.0,1.0,92,0.00,,OVC013,0.10,VWS V14.01,2013-05-05 03:40:00,
2013-05-04 23:45:00,61.5,59.2,30.07,ENE,69,0.0,4.0,92,0.00,,OVC013,0.10,VWS V14.01,2013-05-05 03:45:00,
2013-05-04 23:50:00,61.5,59.5,30.07,East,86,0.0,1.0,93,0.00,,OVC013,0.10,VWS V14.01,2013-05-05 03:50:00,
2013-05-04 23:55:00,61.5,59.5,30.07,SE,127,0.0,2.0,93,0.00,,OVC013,0.10,VWS V14.01,2013-05-05 03:55:00,